createdAt,value
2017-10-19T00:00:25.279Z,12.67
2017-10-19T00:01:25.272Z,12.73
2017-10-19T00:02:25.262Z,12.67
2017-10-19T00:03:25.254Z,12.75
2017-10-19T00:04:25.246Z,12.65
2017-10-19T00:05:25.238Z,12.61
2017-10-19T00:06:25.229Z,12.70
2017-10-19T00:07:25.221Z,12.65
2017-10-19T00:08:25.214Z,12.67
2017-10-19T00:09:25.207Z,12.73
2017-10-19T00:10:25.199Z,12.58
2017-10-19T00:11:25.189Z,12.55
2017-10-19T00:12:25.185Z,12.64
2017-10-19T00:13:25.172Z,12.64
2017-10-19T00:14:25.165Z,12.60
2017-10-19T00:15:25.170Z,12.60
2017-10-19T00:16:25.148Z,12.67
2017-10-19T00:17:25.142Z,12.70
2017-10-19T00:18:25.132Z,12.64
2017-10-19T00:19:25.126Z,12.67
2017-10-19T00:20:25.115Z,12.65
2017-10-19T00:21:25.109Z,12.49
2017-10-19T00:22:25.100Z,12.62
2017-10-19T00:23:25.092Z,12.67
2017-10-19T00:24:25.084Z,12.61
2017-10-19T00:25:25.076Z,12.58
2017-10-19T00:26:25.066Z,12.57
2017-10-19T00:27:25.058Z,12.62
2017-10-19T00:28:25.050Z,12.60
2017-10-19T00:29:25.042Z,12.57
2017-10-19T00:30:25.034Z,12.60
2017-10-19T00:31:25.025Z,12.58
2017-10-19T00:32:25.019Z,12.53
2017-10-19T00:33:25.010Z,12.47
2017-10-19T00:34:25.001Z,12.58
2017-10-19T00:35:24.993Z,12.57
2017-10-19T00:36:24.986Z,12.57
2017-10-19T00:37:24.976Z,12.58
2017-10-19T00:38:24.967Z,12.57
2017-10-19T00:39:24.960Z,12.60
2017-10-19T00:40:24.967Z,12.60
2017-10-19T00:41:24.946Z,12.58
2017-10-19T00:42:24.935Z,12.57
2017-10-19T00:43:24.928Z,12.49
2017-10-19T00:44:24.919Z,12.54
2017-10-19T00:45:24.914Z,12.42
2017-10-19T00:46:24.903Z,12.47
2017-10-19T00:47:24.896Z,12.45
2017-10-19T00:48:24.892Z,12.45
2017-10-19T00:49:24.879Z,12.47
2017-10-19T00:50:24.872Z,12.45
2017-10-19T00:51:24.861Z,12.45
2017-10-19T00:52:24.863Z,12.46
2017-10-19T00:53:24.846Z,12.49
2017-10-19T00:54:24.836Z,12.47
2017-10-19T00:55:24.831Z,12.46
2017-10-19T00:56:24.820Z,12.47
2017-10-19T00:57:24.812Z,12.47
2017-10-19T00:58:24.803Z,12.42
2017-10-19T00:59:24.796Z,12.47
2017-10-19T01:00:24.789Z,12.45
2017-10-19T01:01:24.780Z,12.37
2017-10-19T01:02:24.774Z,12.45
2017-10-19T01:03:24.764Z,12.40
2017-10-19T01:04:24.755Z,12.31
2017-10-19T01:05:24.746Z,12.31
2017-10-19T01:06:24.738Z,12.45
2017-10-19T01:07:24.730Z,12.37
2017-10-19T01:08:24.722Z,12.25
2017-10-19T01:09:24.714Z,12.22
2017-10-19T01:10:24.706Z,12.22
2017-10-19T01:11:24.697Z,12.25
2017-10-19T01:12:24.689Z,12.27
2017-10-19T01:13:24.680Z,12.39
2017-10-19T01:14:24.671Z,12.32
2017-10-19T01:15:24.662Z,12.29
2017-10-19T01:16:24.658Z,12.32
2017-10-19T01:17:24.649Z,12.35
2017-10-19T01:18:24.640Z,12.29
2017-10-19T01:19:24.631Z,12.27
2017-10-19T01:20:24.621Z,12.20
2017-10-19T01:21:24.616Z,12.31
2017-10-19T01:22:24.604Z,12.21
2017-10-19T01:23:24.599Z,12.20
2017-10-19T01:24:24.588Z,12.21
2017-10-19T01:25:24.580Z,12.27
2017-10-19T01:26:24.572Z,12.21
2017-10-19T01:27:24.564Z,12.17
2017-10-19T01:28:24.555Z,12.27
2017-10-19T01:29:24.547Z,12.22
2017-10-19T01:30:24.537Z,12.24
2017-10-19T01:31:24.565Z,12.15
2017-10-19T01:32:24.527Z,12.12
2017-10-19T01:33:24.513Z,12.22
2017-10-19T01:34:24.506Z,12.22
2017-10-19T01:35:24.496Z,12.20
2017-10-19T01:36:24.488Z,12.21
2017-10-19T01:37:24.480Z,12.04
2017-10-19T01:38:24.470Z,12.04
2017-10-19T01:39:24.462Z,12.07
2017-10-19T01:40:24.456Z,12.09
2017-10-19T01:41:24.447Z,12.04
2017-10-19T01:42:24.438Z,12.02
2017-10-19T01:43:24.431Z,12.07
2017-10-19T01:44:24.420Z,12.07
2017-10-19T01:45:24.413Z,12.03
2017-10-19T01:46:24.406Z,12.03
2017-10-19T01:47:24.402Z,11.99
2017-10-19T01:48:24.398Z,11.99
2017-10-19T01:49:24.378Z,11.99
2017-10-19T01:50:24.370Z,11.95
2017-10-19T01:51:24.363Z,11.97
2017-10-19T01:52:24.354Z,11.97
2017-10-19T01:53:24.346Z,12.03
2017-10-19T01:54:24.337Z,12.00
2017-10-19T01:55:24.330Z,11.97
2017-10-19T01:56:24.320Z,11.99
2017-10-19T01:57:24.318Z,11.88
2017-10-19T01:58:24.302Z,11.88
2017-10-19T01:59:24.295Z,11.81
2017-10-19T02:00:24.285Z,11.83
2017-10-19T02:01:24.277Z,11.84
2017-10-19T02:02:24.268Z,11.77
2017-10-19T02:03:24.261Z,11.73
2017-10-19T02:04:24.253Z,11.68
2017-10-19T02:05:24.246Z,11.72
2017-10-19T02:06:24.237Z,11.77
2017-10-19T02:07:24.226Z,11.77
2017-10-19T02:08:24.221Z,11.69
2017-10-19T02:09:24.211Z,11.69
2017-10-19T02:10:24.202Z,11.62
2017-10-19T02:11:24.193Z,11.62
2017-10-19T02:12:24.186Z,11.62
2017-10-19T02:13:24.176Z,11.59
2017-10-19T02:14:24.170Z,11.63
2017-10-19T02:15:24.159Z,11.63
2017-10-19T02:16:24.149Z,11.59
2017-10-19T02:17:24.145Z,11.52
2017-10-19T02:18:24.133Z,11.47
2017-10-19T02:19:24.125Z,11.40
2017-10-19T02:20:24.115Z,11.47
2017-10-19T02:21:24.118Z,11.35
2017-10-19T02:22:24.097Z,11.43
2017-10-19T02:23:24.094Z,11.45
2017-10-19T02:24:24.082Z,11.41
2017-10-19T02:25:24.073Z,11.29
2017-10-19T02:26:24.069Z,11.40
2017-10-19T02:27:24.901Z,11.30
2017-10-19T02:28:24.050Z,11.36
2017-10-19T02:29:24.039Z,11.37
2017-10-19T02:30:24.033Z,11.37
2017-10-19T02:31:24.022Z,11.37
2017-10-19T02:32:24.022Z,11.35
2017-10-19T02:33:24.007Z,11.37
2017-10-19T02:34:23.999Z,11.32
2017-10-19T02:35:23.988Z,11.35
2017-10-19T02:36:23.980Z,11.29
2017-10-19T02:37:23.970Z,11.30
2017-10-19T02:38:23.962Z,11.27
2017-10-19T02:39:23.952Z,11.35
2017-10-19T02:40:23.944Z,11.36
2017-10-19T02:41:23.941Z,11.33
2017-10-19T02:42:23.926Z,11.35
2017-10-19T02:43:23.919Z,11.30
2017-10-19T02:44:23.909Z,11.29
2017-10-19T02:45:23.903Z,11.30
2017-10-19T02:46:23.891Z,11.30
2017-10-19T02:47:23.883Z,11.22
2017-10-19T02:48:23.874Z,11.27
2017-10-19T02:49:23.865Z,11.27
2017-10-19T02:50:23.861Z,11.29
2017-10-19T02:51:23.851Z,11.40
2017-10-19T02:52:23.845Z,11.36
2017-10-19T02:53:23.834Z,11.40
2017-10-19T02:54:23.823Z,11.33
2017-10-19T02:55:23.817Z,11.37
2017-10-19T02:56:23.805Z,11.40
2017-10-19T02:57:23.798Z,11.32
2017-10-19T02:58:39.410Z,11.37
2017-10-19T02:59:23.779Z,11.30
2017-10-19T03:00:23.772Z,11.32
2017-10-19T03:01:23.762Z,11.27
2017-10-19T03:02:23.754Z,11.29
2017-10-19T03:03:23.744Z,11.27
2017-10-19T03:04:23.737Z,11.23
2017-10-19T03:05:23.728Z,11.12
2017-10-19T03:06:23.721Z,11.19
2017-10-19T03:07:23.709Z,11.19
2017-10-19T03:08:23.701Z,11.08
2017-10-19T03:09:23.693Z,11.08
2017-10-19T03:10:23.682Z,11.08
2017-10-19T03:11:23.673Z,11.07
2017-10-19T03:12:23.666Z,11.11
2017-10-19T03:13:23.665Z,11.11
2017-10-19T03:14:23.649Z,11.07
2017-10-19T03:15:23.663Z,11.04
2017-10-19T03:16:23.631Z,10.96
2017-10-19T03:17:23.624Z,11.05
2017-10-19T03:18:23.620Z,11.05
2017-10-19T03:19:23.604Z,10.94
2017-10-19T03:20:23.597Z,10.93
2017-10-19T03:21:23.591Z,10.94
2017-10-19T03:22:23.578Z,10.96
2017-10-19T03:23:23.571Z,10.96
2017-10-19T03:24:23.561Z,10.94
2017-10-19T03:25:23.553Z,10.90
2017-10-19T03:26:23.545Z,10.89
2017-10-19T03:27:23.534Z,10.94
2017-10-19T03:28:23.527Z,10.94
2017-10-19T03:29:23.520Z,10.96
2017-10-19T03:30:23.510Z,10.97
2017-10-19T03:31:23.500Z,10.97
2017-10-19T03:32:23.494Z,10.89
2017-10-19T03:33:23.481Z,10.84
2017-10-19T03:34:23.473Z,10.93
2017-10-19T03:35:23.464Z,10.84
2017-10-19T03:36:23.456Z,10.86
2017-10-19T03:37:23.448Z,10.89
2017-10-19T03:38:23.438Z,10.86
2017-10-19T03:39:23.427Z,10.82
2017-10-19T03:40:23.419Z,10.84
2017-10-19T03:41:23.410Z,10.79
2017-10-19T03:42:23.402Z,10.81
2017-10-19T03:43:23.394Z,10.89
2017-10-19T03:44:23.385Z,10.86
2017-10-19T03:45:23.375Z,10.87
2017-10-19T03:46:23.365Z,10.82
2017-10-19T03:47:23.362Z,10.90
2017-10-19T03:48:23.349Z,10.78
2017-10-19T03:49:23.340Z,10.79
2017-10-19T03:50:23.913Z,10.87
2017-10-19T03:51:23.348Z,10.69
2017-10-19T03:52:23.349Z,10.75
2017-10-19T03:53:23.305Z,10.78
2017-10-19T03:54:23.292Z,10.74
2017-10-19T03:55:23.290Z,10.76
2017-10-19T03:56:23.279Z,10.72
2017-10-19T03:57:23.267Z,10.67
2017-10-19T03:58:23.259Z,10.71
2017-10-19T03:59:23.251Z,10.71
2017-10-19T04:00:23.243Z,10.69
2017-10-19T04:01:23.233Z,10.71
2017-10-19T04:02:23.224Z,10.67
2017-10-19T04:03:23.217Z,10.64
2017-10-19T04:04:23.205Z,10.68
2017-10-19T04:05:23.198Z,10.61
2017-10-19T04:06:23.187Z,10.61
2017-10-19T04:07:23.180Z,10.56
2017-10-19T04:08:23.170Z,10.61
2017-10-19T04:09:23.162Z,10.63
2017-10-19T04:10:23.151Z,10.57
2017-10-19T04:11:23.141Z,10.61
2017-10-19T04:12:23.133Z,10.59
2017-10-19T04:13:23.126Z,10.59
2017-10-19T04:14:23.116Z,10.57
2017-10-19T04:15:23.107Z,10.60
2017-10-19T04:16:23.102Z,10.48
2017-10-19T04:17:23.089Z,10.54
2017-10-19T04:18:23.089Z,10.57
2017-10-19T04:19:23.069Z,10.56
2017-10-19T04:20:23.064Z,10.51
2017-10-19T04:21:23.053Z,10.54
2017-10-19T04:22:23.048Z,10.51
2017-10-19T04:23:23.040Z,10.53
2017-10-19T04:24:23.027Z,10.42
2017-10-19T04:25:23.018Z,10.46
2017-10-19T04:26:23.009Z,10.51
2017-10-19T04:27:22.997Z,10.48
2017-10-19T04:28:22.993Z,10.44
2017-10-19T04:29:22.981Z,10.44
2017-10-19T04:30:22.971Z,10.51
2017-10-19T04:31:22.961Z,10.48
2017-10-19T04:32:22.954Z,10.46
2017-10-19T04:33:22.945Z,10.46
2017-10-19T04:34:22.933Z,10.53
2017-10-19T04:35:22.926Z,10.53
2017-10-19T04:36:22.918Z,10.51
2017-10-19T04:37:22.908Z,10.51
2017-10-19T04:38:22.902Z,10.46
2017-10-19T04:39:22.895Z,10.46
2017-10-19T04:40:22.881Z,10.46
2017-10-19T04:41:22.875Z,10.49
2017-10-19T04:42:22.860Z,10.46
2017-10-19T04:43:22.854Z,10.48
2017-10-19T04:44:22.844Z,10.49
2017-10-19T04:45:22.837Z,10.49
2017-10-19T04:46:22.826Z,10.48
2017-10-19T04:47:22.817Z,10.42
2017-10-19T04:48:22.810Z,10.40
2017-10-19T04:49:22.800Z,10.42
2017-10-19T04:50:22.790Z,10.41
2017-10-19T04:51:22.781Z,10.49
2017-10-19T04:52:22.772Z,10.35
2017-10-19T04:53:22.764Z,10.37
2017-10-19T04:54:22.753Z,10.34
2017-10-19T04:55:22.746Z,10.46
2017-10-19T04:56:22.737Z,10.44
2017-10-19T04:57:22.727Z,10.40
2017-10-19T04:58:22.717Z,10.41
2017-10-19T04:59:22.707Z,10.37
2017-10-19T05:00:22.700Z,10.37
2017-10-19T05:01:22.691Z,10.40
2017-10-19T05:02:22.691Z,10.41
2017-10-19T05:03:22.672Z,10.40
2017-10-19T05:04:22.663Z,10.40
2017-10-19T05:05:22.654Z,10.42
2017-10-19T05:06:22.661Z,10.37
2017-10-19T05:07:22.637Z,10.42
2017-10-19T05:08:22.628Z,10.33
2017-10-19T05:09:22.619Z,10.38
2017-10-19T05:10:22.613Z,10.30
2017-10-19T05:11:22.604Z,10.28
2017-10-19T05:12:22.594Z,10.33
2017-10-19T05:13:22.581Z,10.28
2017-10-19T05:14:22.572Z,10.38
2017-10-19T05:15:22.563Z,10.37
2017-10-19T05:16:22.554Z,10.41
2017-10-19T05:17:22.547Z,10.31
2017-10-19T05:18:22.536Z,10.51
2017-10-19T05:19:22.532Z,10.41
2017-10-19T05:20:22.519Z,10.42
2017-10-19T05:21:22.508Z,10.41
2017-10-19T05:22:22.499Z,10.33
2017-10-19T05:23:22.490Z,10.37
2017-10-19T05:24:22.483Z,10.37
2017-10-19T05:25:22.473Z,10.30
2017-10-19T05:26:22.462Z,10.33
2017-10-19T05:27:22.453Z,10.31
2017-10-19T05:28:22.444Z,10.26
2017-10-19T05:29:22.438Z,10.30
2017-10-19T05:30:22.425Z,10.31
2017-10-19T05:31:22.415Z,10.37
2017-10-19T05:32:22.407Z,10.33
2017-10-19T05:33:22.400Z,10.22
2017-10-19T05:34:22.389Z,10.25
2017-10-19T05:35:22.381Z,10.30
2017-10-19T05:36:22.372Z,10.31
2017-10-19T05:37:22.363Z,10.20
2017-10-19T05:38:22.351Z,10.23
2017-10-19T05:39:22.342Z,10.22
2017-10-19T05:40:22.334Z,10.22
2017-10-19T05:41:22.326Z,10.30
2017-10-19T05:42:22.315Z,10.28
2017-10-19T05:43:22.320Z,10.30
2017-10-19T05:44:22.299Z,10.19
2017-10-19T05:45:22.296Z,10.25
2017-10-19T05:46:22.285Z,10.26
2017-10-19T05:47:22.274Z,10.19
2017-10-19T05:48:22.261Z,10.12
2017-10-19T05:49:22.251Z,10.20
2017-10-19T05:50:22.241Z,10.20
2017-10-19T05:51:22.236Z,10.20
2017-10-19T05:52:22.226Z,10.16
2017-10-19T05:53:22.218Z,10.17
2017-10-19T05:54:22.204Z,10.17
2017-10-19T05:55:22.195Z,10.10
2017-10-19T05:56:22.190Z,10.10
2017-10-19T05:57:22.180Z,10.10
2017-10-19T05:58:22.168Z,10.15
2017-10-19T05:59:22.160Z,10.17
2017-10-19T06:00:22.202Z,10.15
2017-10-19T06:01:22.175Z,10.05
2017-10-19T06:02:22.134Z,10.16
2017-10-19T06:03:22.126Z,10.07
2017-10-19T06:04:22.114Z,10.10
2017-10-19T06:05:22.105Z,10.10
2017-10-19T06:06:22.097Z,10.16
2017-10-19T06:07:22.088Z,10.10
2017-10-19T06:08:22.077Z,10.09
2017-10-19T06:09:22.066Z,10.13
2017-10-19T06:10:22.058Z,10.13
2017-10-19T06:11:22.054Z,10.12
2017-10-19T06:12:22.044Z,10.10
2017-10-19T06:13:22.033Z,10.16
2017-10-19T06:14:22.022Z,10.15
2017-10-19T06:15:22.011Z,10.20
2017-10-19T06:16:22.007Z,10.13
2017-10-19T06:17:21.996Z,10.09
2017-10-19T06:18:21.983Z,10.19
2017-10-19T06:19:21.975Z,10.17
2017-10-19T06:20:21.969Z,10.22
2017-10-19T06:21:22.513Z,10.16
2017-10-19T06:22:21.946Z,10.17
2017-10-19T06:23:21.938Z,10.19
2017-10-19T06:24:21.941Z,10.22
2017-10-19T06:25:21.921Z,10.20
2017-10-19T06:26:21.910Z,10.20
2017-10-19T06:27:21.901Z,10.22
2017-10-19T06:28:21.892Z,10.22
2017-10-19T06:29:21.882Z,10.26
2017-10-19T06:30:21.873Z,10.26
2017-10-19T06:31:21.866Z,10.30
2017-10-19T06:32:21.855Z,10.33
2017-10-19T06:33:21.846Z,10.23
2017-10-19T06:34:21.836Z,10.20
2017-10-19T06:35:21.827Z,10.17
2017-10-19T06:36:21.819Z,10.33
2017-10-19T06:37:21.809Z,10.35
2017-10-19T06:38:21.799Z,10.31
2017-10-19T06:39:21.793Z,10.33
2017-10-19T06:40:21.781Z,10.33
2017-10-19T06:41:21.773Z,10.35
2017-10-19T06:42:21.765Z,10.28
2017-10-19T06:43:21.766Z,10.40
2017-10-19T06:44:21.760Z,10.38
2017-10-19T06:45:21.735Z,10.53
2017-10-19T06:46:21.730Z,10.48
2017-10-19T06:47:21.722Z,10.41
2017-10-19T06:48:21.709Z,10.41
2017-10-19T06:49:21.700Z,10.56
2017-10-19T06:50:21.689Z,10.54
2017-10-19T06:51:21.685Z,10.57
2017-10-19T06:52:21.678Z,10.59
2017-10-19T06:53:21.670Z,10.57
2017-10-19T06:54:21.654Z,10.59
2017-10-19T06:55:21.646Z,10.64
2017-10-19T06:56:21.637Z,10.68
2017-10-19T06:57:21.628Z,10.72
2017-10-19T06:58:21.620Z,10.78
2017-10-19T06:59:21.608Z,10.78
2017-10-19T07:00:21.607Z,10.78
2017-10-19T07:01:21.595Z,10.82
2017-10-19T07:02:21.587Z,10.76
2017-10-19T07:03:21.576Z,10.82
2017-10-19T07:04:21.569Z,10.78
2017-10-19T07:05:21.557Z,10.86
2017-10-19T07:06:21.566Z,10.89
2017-10-19T07:07:21.539Z,10.94
2017-10-19T07:08:21.533Z,10.93
2017-10-19T07:09:21.525Z,10.97
2017-10-19T07:10:21.513Z,10.96
2017-10-19T07:11:21.507Z,10.93
2017-10-19T07:12:21.511Z,11.08
2017-10-19T07:13:21.552Z,11.05
2017-10-19T07:14:21.479Z,11.08
2017-10-19T07:15:21.470Z,11.07
2017-10-19T07:16:21.461Z,11.04
2017-10-19T07:17:21.451Z,11.07
2017-10-19T07:18:21.447Z,11.11
2017-10-19T07:19:21.435Z,11.11
2017-10-19T07:20:21.437Z,11.11
2017-10-19T07:21:21.417Z,11.05
2017-10-19T07:22:21.413Z,11.15
2017-10-19T07:23:21.402Z,11.15
2017-10-19T07:24:21.391Z,11.14
2017-10-19T07:25:21.389Z,11.23
2017-10-19T07:26:21.374Z,11.15
2017-10-19T07:27:21.368Z,11.17
2017-10-19T07:28:21.358Z,11.29
2017-10-19T07:29:21.369Z,11.27
2017-10-19T07:30:21.340Z,11.30
2017-10-19T07:31:21.331Z,11.33
2017-10-19T07:32:21.350Z,11.32
2017-10-19T07:33:21.318Z,11.36
2017-10-19T07:34:21.308Z,11.41
2017-10-19T07:35:21.385Z,11.43
2017-10-19T07:36:21.288Z,11.37
2017-10-19T07:37:21.284Z,11.41
2017-10-19T07:38:21.272Z,11.37
2017-10-19T07:39:21.265Z,11.41
2017-10-19T07:40:21.257Z,11.47
2017-10-19T07:41:21.255Z,11.51
2017-10-19T07:42:21.237Z,11.51
2017-10-19T07:43:21.229Z,11.59
2017-10-19T07:44:21.226Z,11.52
2017-10-19T07:45:21.232Z,11.60
2017-10-19T07:46:21.206Z,11.62
2017-10-19T07:47:21.195Z,11.62
2017-10-19T07:48:21.189Z,11.62
2017-10-19T07:49:21.181Z,11.63
2017-10-19T07:50:21.180Z,11.72
2017-10-19T07:51:21.163Z,11.72
2017-10-19T07:52:21.156Z,11.77
2017-10-19T07:53:21.149Z,11.81
2017-10-19T07:54:21.140Z,11.84
2017-10-19T07:55:21.131Z,11.86
2017-10-19T07:56:21.126Z,11.91
2017-10-19T07:57:21.116Z,11.91
2017-10-19T07:58:21.107Z,12.00
2017-10-19T07:59:21.097Z,11.97
2017-10-19T08:00:21.105Z,11.99
2017-10-19T08:01:21.089Z,12.06
2017-10-19T08:02:21.084Z,12.04
2017-10-19T08:03:21.068Z,12.04
2017-10-19T08:04:21.067Z,12.04
2017-10-19T08:05:21.052Z,12.06
2017-10-19T08:06:21.044Z,12.04
2017-10-19T08:07:21.034Z,12.20
2017-10-19T08:08:21.035Z,12.27
2017-10-19T08:09:21.023Z,12.21
2017-10-19T08:10:21.017Z,12.29
2017-10-19T08:11:21.008Z,12.35
2017-10-19T08:12:21.000Z,12.36
2017-10-19T08:13:20.988Z,12.42
2017-10-19T08:14:20.990Z,12.46
2017-10-19T08:15:20.974Z,12.55
2017-10-19T08:16:20.965Z,12.55
2017-10-19T08:17:20.956Z,12.68
2017-10-19T08:18:20.983Z,12.68
2017-10-19T08:19:20.944Z,12.85
2017-10-19T08:20:20.937Z,12.82
2017-10-19T08:21:20.929Z,12.90
2017-10-19T08:22:20.919Z,12.93
2017-10-19T08:23:20.919Z,13.04
2017-10-19T08:24:20.905Z,13.13
2017-10-19T08:25:20.910Z,13.13
2017-10-19T08:26:20.889Z,13.27
2017-10-19T08:27:20.881Z,13.25
2017-10-19T08:28:20.919Z,13.35
2017-10-19T08:29:20.867Z,13.41
2017-10-19T08:30:20.941Z,13.54
2017-10-19T08:31:20.851Z,13.57
2017-10-19T08:32:20.847Z,13.62
2017-10-19T08:33:20.856Z,13.59
2017-10-19T08:34:20.829Z,13.65
2017-10-19T08:35:20.823Z,13.75
2017-10-19T08:36:20.816Z,13.93
2017-10-19T08:37:20.812Z,13.95
2017-10-19T08:38:20.803Z,14.15
2017-10-19T08:39:20.793Z,14.45
2017-10-19T08:40:20.788Z,14.65
2017-10-19T08:41:20.781Z,14.89
2017-10-19T08:42:20.776Z,15.10
2017-10-19T08:43:20.768Z,15.18
2017-10-19T08:44:20.763Z,15.31
2017-10-19T08:45:20.755Z,15.36
2017-10-19T08:46:20.748Z,15.64
2017-10-19T08:47:20.744Z,15.80
2017-10-19T08:48:20.737Z,15.92
2017-10-19T08:49:20.732Z,16.01
2017-10-19T08:50:20.728Z,16.10
2017-10-19T08:51:20.760Z,16.31
2017-10-19T08:52:20.718Z,16.53
2017-10-19T08:53:20.785Z,16.64
2017-10-19T08:54:20.758Z,16.74
2017-10-19T08:55:20.704Z,16.83
2017-10-19T08:56:20.702Z,17.04
2017-10-19T08:57:20.705Z,17.02
2017-10-19T08:58:20.701Z,17.16
2017-10-19T08:59:20.698Z,17.14
2017-10-19T09:00:20.703Z,17.09
2017-10-19T09:01:20.702Z,17.34
2017-10-19T09:02:20.690Z,17.41
2017-10-19T09:03:20.680Z,17.54
2017-10-19T09:04:20.735Z,17.65
2017-10-19T09:05:20.682Z,17.71
2017-10-19T09:06:20.676Z,17.68
2017-10-19T09:07:20.676Z,17.76
2017-10-19T09:08:20.706Z,17.78
2017-10-19T09:09:20.695Z,17.80
2017-10-19T09:10:20.675Z,17.90
2017-10-19T09:11:20.695Z,17.98
2017-10-19T09:12:20.707Z,17.97
2017-10-19T09:13:20.693Z,18.10
2017-10-19T09:14:20.667Z,18.29
2017-10-19T09:15:20.716Z,18.34
2017-10-19T09:16:20.690Z,18.45
2017-10-19T09:17:20.695Z,18.43
2017-10-19T09:18:20.688Z,18.53
2017-10-19T09:19:20.688Z,18.62
2017-10-19T09:20:20.681Z,18.83
2017-10-19T09:21:20.670Z,18.96
2017-10-19T09:22:20.708Z,18.99
2017-10-19T09:23:20.690Z,19.18
2017-10-19T09:24:20.673Z,19.47
2017-10-19T09:25:20.672Z,19.56
2017-10-19T09:26:20.674Z,19.56
2017-10-19T09:27:20.674Z,19.67
2017-10-19T09:28:20.674Z,19.77
2017-10-19T09:29:20.691Z,19.86
2017-10-19T09:30:20.682Z,19.88
2017-10-19T09:31:20.784Z,19.76
2017-10-19T09:32:20.686Z,19.85
2017-10-19T09:33:20.685Z,20.00
2017-10-19T09:34:20.687Z,20.10
2017-10-19T09:35:20.694Z,20.24
2017-10-19T09:36:20.698Z,20.41
2017-10-19T09:37:20.694Z,20.65
2017-10-19T09:38:20.695Z,20.66
2017-10-19T09:39:20.716Z,20.62
2017-10-19T09:40:20.711Z,20.77
2017-10-19T09:41:20.714Z,20.92
2017-10-19T09:42:20.708Z,21.11
2017-10-19T09:43:20.711Z,21.18
2017-10-19T09:44:20.719Z,21.20
2017-10-19T09:45:20.718Z,21.48
2017-10-19T09:46:20.719Z,21.55
2017-10-19T09:47:20.726Z,21.67
2017-10-19T09:48:20.750Z,21.88
2017-10-19T09:49:20.730Z,22.10
2017-10-19T09:50:20.736Z,22.17
2017-10-19T09:51:20.739Z,22.13
2017-10-19T09:52:20.749Z,22.25
2017-10-19T09:53:20.749Z,22.53
2017-10-19T09:54:20.750Z,22.70
2017-10-19T09:55:20.754Z,22.78
2017-10-19T09:56:20.759Z,22.68
2017-10-19T09:57:20.762Z,22.66
2017-10-19T09:58:20.765Z,22.69
2017-10-19T09:59:20.771Z,22.75
2017-10-19T10:00:20.797Z,22.75
2017-10-19T10:01:20.782Z,22.73
2017-10-19T10:02:20.785Z,22.81
2017-10-19T10:03:20.807Z,22.88
2017-10-19T10:04:20.799Z,22.88
2017-10-19T10:05:20.798Z,22.96
2017-10-19T10:06:20.802Z,23.10
2017-10-19T10:07:20.810Z,23.20
2017-10-19T10:08:20.813Z,23.36
2017-10-19T10:09:20.824Z,23.55
2017-10-19T10:10:20.822Z,23.58
2017-10-19T10:11:20.828Z,23.46
2017-10-19T10:12:20.835Z,23.28
2017-10-19T10:13:20.838Z,23.28
2017-10-19T10:14:20.842Z,23.23
2017-10-19T10:15:20.848Z,22.94
2017-10-19T10:16:20.882Z,22.85
2017-10-19T10:17:20.857Z,23.10
2017-10-19T10:18:20.862Z,23.37
2017-10-19T10:19:20.868Z,23.41
2017-10-19T10:20:20.873Z,23.28
2017-10-19T10:21:20.882Z,23.40
2017-10-19T10:22:20.886Z,23.46
2017-10-19T10:23:20.892Z,23.65
2017-10-19T10:24:20.895Z,23.62
2017-10-19T10:25:20.903Z,23.58
2017-10-19T10:26:20.906Z,23.68
2017-10-19T10:27:20.916Z,23.81
2017-10-19T10:28:20.919Z,23.87
2017-10-19T10:29:20.926Z,23.86
2017-10-19T10:30:20.931Z,23.93
2017-10-19T10:31:20.939Z,23.98
2017-10-19T10:32:20.956Z,23.87
2017-10-19T10:33:20.954Z,23.81
2017-10-19T10:34:20.956Z,23.77
2017-10-19T10:35:20.962Z,23.76
2017-10-19T10:36:20.969Z,23.87
2017-10-19T10:37:20.975Z,23.88
2017-10-19T10:38:20.981Z,23.99
2017-10-19T10:39:20.987Z,24.10
2017-10-19T10:40:20.994Z,24.08
2017-10-19T10:41:20.999Z,24.13
2017-10-19T10:42:21.006Z,23.98
2017-10-19T10:43:21.012Z,23.96
2017-10-19T10:44:21.027Z,23.80
2017-10-19T10:45:21.119Z,23.58
2017-10-19T10:46:21.031Z,23.58
2017-10-19T10:47:21.043Z,23.56
2017-10-19T10:48:21.046Z,23.61
2017-10-19T10:49:21.053Z,23.78
2017-10-19T10:50:21.592Z,24.03
2017-10-19T10:51:21.075Z,24.30
2017-10-19T10:52:21.075Z,24.45
2017-10-19T10:53:21.080Z,24.54
2017-10-19T10:54:21.086Z,24.73
2017-10-19T10:55:21.093Z,24.78
2017-10-19T10:56:21.100Z,24.81
2017-10-19T10:57:21.132Z,24.81
2017-10-19T10:58:21.121Z,24.80
2017-10-19T10:59:21.123Z,24.93
2017-10-19T11:00:21.135Z,24.99
2017-10-19T11:01:21.136Z,25.17
2017-10-19T11:02:21.144Z,25.13
2017-10-19T11:03:21.176Z,25.22
2017-10-19T11:04:21.158Z,25.13
2017-10-19T11:05:21.165Z,25.21
2017-10-19T11:06:21.169Z,25.22
2017-10-19T11:07:21.183Z,25.26
2017-10-19T11:08:21.198Z,25.31
2017-10-19T11:09:21.196Z,25.25
2017-10-19T11:10:21.207Z,25.23
2017-10-19T11:11:21.210Z,25.03
2017-10-19T11:12:21.222Z,24.96
2017-10-19T11:13:21.227Z,24.92
2017-10-19T11:14:21.232Z,24.96
2017-10-19T11:15:21.239Z,25.18
2017-10-19T11:16:21.261Z,25.16
2017-10-19T11:17:21.252Z,25.29
2017-10-19T11:18:21.259Z,25.48
2017-10-19T11:19:21.267Z,25.50
2017-10-19T11:20:21.273Z,25.47
2017-10-19T11:21:21.291Z,25.40
2017-10-19T11:22:21.291Z,25.17
2017-10-19T11:23:21.294Z,24.96
2017-10-19T11:24:21.304Z,24.93
2017-10-19T11:25:21.324Z,24.74
2017-10-19T11:26:21.356Z,24.69
2017-10-19T11:27:21.320Z,24.81
2017-10-19T11:28:21.326Z,25.01
2017-10-19T11:29:21.338Z,25.03
2017-10-19T11:30:21.341Z,25.16
2017-10-19T11:31:21.350Z,25.13
2017-10-19T11:32:21.361Z,25.22
2017-10-19T11:33:21.360Z,25.18
2017-10-19T11:34:21.368Z,25.29
2017-10-19T11:35:21.376Z,25.25
2017-10-19T11:36:21.379Z,25.17
2017-10-19T11:37:21.388Z,25.18
2017-10-19T11:38:21.394Z,25.18
2017-10-19T11:39:21.399Z,25.23
2017-10-19T11:40:21.409Z,25.18
2017-10-19T11:41:21.411Z,25.21
2017-10-19T11:42:21.417Z,25.35
2017-10-19T11:43:21.425Z,25.46
2017-10-19T11:44:21.432Z,25.36
2017-10-19T11:45:21.438Z,25.29
2017-10-19T11:46:21.443Z,25.23
2017-10-19T11:47:21.450Z,25.17
2017-10-19T11:48:21.462Z,24.80
2017-10-19T11:49:21.466Z,24.58
2017-10-19T11:50:21.471Z,24.36
2017-10-19T11:51:21.476Z,24.33
2017-10-19T11:52:21.480Z,24.38
2017-10-19T11:53:21.488Z,24.40
2017-10-19T11:54:21.491Z,24.47
2017-10-19T11:55:21.497Z,24.54
2017-10-19T11:56:21.502Z,24.57
2017-10-19T11:57:21.509Z,24.43
2017-10-19T11:58:21.515Z,24.33
2017-10-19T11:59:21.521Z,24.01
2017-10-19T12:00:21.536Z,23.71
2017-10-19T12:01:21.534Z,23.34
2017-10-19T12:02:21.535Z,23.32
2017-10-19T12:03:21.540Z,23.44
2017-10-19T12:04:21.546Z,23.55
2017-10-19T12:05:21.555Z,23.51
2017-10-19T12:06:21.556Z,23.66
2017-10-19T12:07:21.562Z,23.77
2017-10-19T12:08:21.571Z,23.86
2017-10-19T12:09:21.580Z,24.10
2017-10-19T12:10:21.580Z,24.28
2017-10-19T12:11:21.581Z,24.21
2017-10-19T12:12:21.585Z,23.92
2017-10-19T12:13:21.588Z,23.77
2017-10-19T12:14:21.591Z,23.76
2017-10-19T12:15:21.596Z,23.80
2017-10-19T12:16:21.604Z,23.71
2017-10-19T12:17:21.605Z,23.59
2017-10-19T12:18:21.609Z,23.32
2017-10-19T12:19:21.612Z,23.28
2017-10-19T12:20:21.631Z,23.21
2017-10-19T12:21:21.624Z,23.34
2017-10-19T12:22:21.626Z,23.65
2017-10-19T12:23:21.633Z,23.91
2017-10-19T12:24:21.639Z,24.01
2017-10-19T12:25:21.640Z,24.20
2017-10-19T12:26:21.643Z,24.17
2017-10-19T12:27:21.650Z,24.03
2017-10-19T12:28:21.650Z,24.10
2017-10-19T12:29:21.655Z,24.01
2017-10-19T12:30:21.664Z,24.01
2017-10-19T12:31:21.666Z,24.06
2017-10-19T12:32:21.670Z,24.13
2017-10-19T12:33:21.677Z,23.99
2017-10-19T12:34:21.682Z,23.87
2017-10-19T12:35:21.685Z,23.95
2017-10-19T12:36:21.688Z,24.24
2017-10-19T12:37:21.696Z,24.43
2017-10-19T12:38:21.699Z,24.69
2017-10-19T12:39:21.703Z,24.40
2017-10-19T12:40:21.708Z,24.20
2017-10-19T12:41:21.712Z,24.11
2017-10-19T12:42:21.718Z,24.23
2017-10-19T12:43:21.723Z,24.28
2017-10-19T12:44:21.725Z,24.47
2017-10-19T12:45:21.728Z,24.70
2017-10-19T12:46:21.732Z,24.80
2017-10-19T12:47:21.735Z,24.95
2017-10-19T12:48:21.743Z,24.96
2017-10-19T12:49:21.765Z,25.11
2017-10-19T12:50:21.755Z,25.11
2017-10-19T12:51:21.754Z,25.10
2017-10-19T12:52:21.759Z,25.16